sensor_id;sensor_type;location;lat;lon;timestamp;P1;durP1;ratioP1;P2;durP2;ratioP2
3667;SDS011;24099;47.102;15.440;2023-08-06T00:00:07;0.52;;;0.30;;
3667;SDS011;24099;47.102;15.440;2023-08-06T00:02:35;0.20;;;0.20;;
3667;SDS011;24099;47.102;15.440;2023-08-06T00:05:03;0.20;;;0.20;;
3667;SDS011;24099;47.102;15.440;2023-08-06T00:07:32;0.28;;;0.28;;
3667;SDS011;24099;47.102;15.440;2023-08-06T00:10:00;1.02;;;0.20;;
3667;SDS011;24099;47.102;15.440;2023-08-06T00:12:27;0.20;;;0.20;;
3667;SDS011;24099;47.102;15.440;2023-08-06T00:14:55;0.20;;;0.20;;
3667;SDS011;24099;47.102;15.440;2023-08-06T00:17:22;0.20;;;0.20;;
3667;SDS011;24099;47.102;15.440;2023-08-06T00:19:50;0.20;;;0.20;;
3667;SDS011;24099;47.102;15.440;2023-08-06T00:22:17;0.13;;;0.13;;
3667;SDS011;24099;47.102;15.440;2023-08-06T00:24:46;3.20;;;0.35;;
3667;SDS011;24099;47.102;15.440;2023-08-06T00:27:13;5.18;;;0.30;;
3667;SDS011;24099;47.102;15.440;2023-08-06T00:29:41;0.30;;;0.30;;
3667;SDS011;24099;47.102;15.440;2023-08-06T00:32:08;0.17;;;0.17;;
3667;SDS011;24099;47.102;15.440;2023-08-06T00:34:36;0.20;;;0.20;;
3667;SDS011;24099;47.102;15.440;2023-08-06T00:37:03;0.20;;;0.20;;
3667;SDS011;24099;47.102;15.440;2023-08-06T00:39:31;0.50;;;0.20;;
3667;SDS011;24099;47.102;15.440;2023-08-06T00:42:00;0.30;;;0.30;;
3667;SDS011;24099;47.102;15.440;2023-08-06T00:44:27;0.20;;;0.20;;
3667;SDS011;24099;47.102;15.440;2023-08-06T00:46:55;0.47;;;0.32;;
3667;SDS011;24099;47.102;15.440;2023-08-06T00:49:23;0.22;;;0.22;;
3667;SDS011;24099;47.102;15.440;2023-08-06T00:51:50;0.20;;;0.20;;
3667;SDS011;24099;47.102;15.440;2023-08-06T00:54:18;0.10;;;0.10;;
3667;SDS011;24099;47.102;15.440;2023-08-06T00:56:46;0.10;;;0.10;;
3667;SDS011;24099;47.102;15.440;2023-08-06T00:59:15;1.83;;;0.20;;
3667;SDS011;24099;47.102;15.440;2023-08-06T01:01:43;0.30;;;0.30;;
3667;SDS011;24099;47.102;15.440;2023-08-06T01:04:11;1.77;;;0.25;;
3667;SDS011;24099;47.102;15.440;2023-08-06T01:06:40;3.75;;;0.35;;
3667;SDS011;24099;47.102;15.440;2023-08-06T01:09:15;0.10;;;0.10;;
3667;SDS011;24099;47.102;15.440;2023-08-06T01:11:56;2.15;;;0.30;;
3667;SDS011;24099;47.102;15.440;2023-08-06T01:14:34;0.80;;;0.28;;
3667;SDS011;24099;47.102;15.440;2023-08-06T01:17:12;0.50;;;0.35;;
3667;SDS011;24099;47.102;15.440;2023-08-06T01:19:40;0.15;;;0.15;;
3667;SDS011;24099;47.102;15.440;2023-08-06T01:22:09;0.47;;;0.20;;
3667;SDS011;24099;47.102;15.440;2023-08-06T01:24:36;0.25;;;0.25;;
3667;SDS011;24099;47.102;15.440;2023-08-06T01:27:06;0.25;;;0.25;;
3667;SDS011;24099;47.102;15.440;2023-08-06T01:29:41;0.30;;;0.30;;
3667;SDS011;24099;47.102;15.440;2023-08-06T01:32:13;0.60;;;0.30;;
3667;SDS011;24099;47.102;15.440;2023-08-06T01:34:43;0.77;;;0.50;;
3667;SDS011;24099;47.102;15.440;2023-08-06T01:37:15;0.43;;;0.20;;
3667;SDS011;24099;47.102;15.440;2023-08-06T01:39:43;1.85;;;0.20;;
3667;SDS011;24099;47.102;15.440;2023-08-06T01:42:10;3.30;;;0.43;;
3667;SDS011;24099;47.102;15.440;2023-08-06T01:44:39;0.20;;;0.20;;
3667;SDS011;24099;47.102;15.440;2023-08-06T01:47:06;0.22;;;0.22;;
3667;SDS011;24099;47.102;15.440;2023-08-06T01:49:34;0.65;;;0.20;;
3667;SDS011;24099;47.102;15.440;2023-08-06T01:52:01;0.20;;;0.20;;
3667;SDS011;24099;47.102;15.440;2023-08-06T01:54:30;1.08;;;0.32;;
3667;SDS011;24099;47.102;15.440;2023-08-06T01:56:58;2.60;;;0.38;;
3667;SDS011;24099;47.102;15.440;2023-08-06T01:59:25;0.30;;;0.30;;
3667;SDS011;24099;47.102;15.440;2023-08-06T02:01:53;0.20;;;0.20;;
3667;SDS011;24099;47.102;15.440;2023-08-06T02:04:20;0.20;;;0.20;;
3667;SDS011;24099;47.102;15.440;2023-08-06T02:06:49;0.10;;;0.10;;
3667;SDS011;24099;47.102;15.440;2023-08-06T02:09:17;0.43;;;0.10;;
3667;SDS011;24099;47.102;15.440;2023-08-06T02:11:45;0.35;;;0.35;;
3667;SDS011;24099;47.102;15.440;2023-08-06T02:14:13;1.13;;;0.47;;
3667;SDS011;24099;47.102;15.440;2023-08-06T02:16:41;0.10;;;0.10;;
3667;SDS011;24099;47.102;15.440;2023-08-06T02:19:08;2.65;;;0.57;;
3667;SDS011;24099;47.102;15.440;2023-08-06T02:21:36;0.43;;;0.20;;
3667;SDS011;24099;47.102;15.440;2023-08-06T02:24:03;0.20;;;0.20;;
3667;SDS011;24099;47.102;15.440;2023-08-06T02:26:31;0.32;;;0.32;;
3667;SDS011;24099;47.102;15.440;2023-08-06T02:29:00;0.20;;;0.20;;
3667;SDS011;24099;47.102;15.440;2023-08-06T02:31:27;0.10;;;0.10;;
3667;SDS011;24099;47.102;15.440;2023-08-06T02:33:55;0.20;;;0.20;;
3667;SDS011;24099;47.102;15.440;2023-08-06T02:36:23;0.25;;;0.17;;
3667;SDS011;24099;47.102;15.440;2023-08-06T02:38:54;0.20;;;0.20;;
3667;SDS011;24099;47.102;15.440;2023-08-06T02:41:22;0.68;;;0.30;;
3667;SDS011;24099;47.102;15.440;2023-08-06T02:43:49;3.03;;;0.20;;
3667;SDS011;24099;47.102;15.440;2023-08-06T02:46:18;0.52;;;0.40;;
3667;SDS011;24099;47.102;15.440;2023-08-06T02:48:46;0.20;;;0.20;;
3667;SDS011;24099;47.102;15.440;2023-08-06T02:51:14;0.10;;;0.10;;
3667;SDS011;24099;47.102;15.440;2023-08-06T02:53:41;2.25;;;0.20;;
3667;SDS011;24099;47.102;15.440;2023-08-06T02:56:12;0.50;;;0.20;;
3667;SDS011;24099;47.102;15.440;2023-08-06T02:58:50;0.20;;;0.20;;
3667;SDS011;24099;47.102;15.440;2023-08-06T03:01:45;0.20;;;0.20;;
3667;SDS011;24099;47.102;15.440;2023-08-06T03:04:19;2.30;;;0.22;;
3667;SDS011;24099;47.102;15.440;2023-08-06T03:06:49;0.20;;;0.20;;
3667;SDS011;24099;47.102;15.440;2023-08-06T03:09:18;1.00;;;0.20;;
3667;SDS011;24099;47.102;15.440;2023-08-06T03:11:47;0.20;;;0.20;;
3667;SDS011;24099;47.102;15.440;2023-08-06T03:14:15;3.17;;;0.20;;
3667;SDS011;24099;47.102;15.440;2023-08-06T03:16:45;0.17;;;0.17;;
3667;SDS011;24099;47.102;15.440;2023-08-06T03:19:15;0.20;;;0.20;;
3667;SDS011;24099;47.102;15.440;2023-08-06T03:21:44;0.50;;;0.40;;
3667;SDS011;24099;47.102;15.440;2023-08-06T03:24:13;4.00;;;1.08;;
3667;SDS011;24099;47.102;15.440;2023-08-06T03:26:41;0.20;;;0.20;;
3667;SDS011;24099;47.102;15.440;2023-08-06T03:29:10;0.30;;;0.30;;
3667;SDS011;24099;47.102;15.440;2023-08-06T03:31:39;0.43;;;0.30;;
3667;SDS011;24099;47.102;15.440;2023-08-06T03:34:08;1.90;;;0.47;;
3667;SDS011;24099;47.102;15.440;2023-08-06T03:36:36;0.22;;;0.22;;
3667;SDS011;24099;47.102;15.440;2023-08-06T03:39:03;0.20;;;0.20;;
3667;SDS011;24099;47.102;15.440;2023-08-06T03:41:31;0.47;;;0.32;;
3667;SDS011;24099;47.102;15.440;2023-08-06T03:43:58;0.45;;;0.38;;
3667;SDS011;24099;47.102;15.440;2023-08-06T03:46:27;0.60;;;0.30;;
3667;SDS011;24099;47.102;15.440;2023-08-06T03:48:58;0.30;;;0.30;;
3667;SDS011;24099;47.102;15.440;2023-08-06T03:51:27;0.25;;;0.25;;
3667;SDS011;24099;47.102;15.440;2023-08-06T03:53:55;0.75;;;0.52;;
3667;SDS011;24099;47.102;15.440;2023-08-06T03:56:23;0.10;;;0.10;;
3667;SDS011;24099;47.102;15.440;2023-08-06T03:58:50;0.17;;;0.17;;
3667;SDS011;24099;47.102;15.440;2023-08-06T04:01:18;0.98;;;0.30;;
3667;SDS011;24099;47.102;15.440;2023-08-06T04:03:47;0.30;;;0.30;;
3667;SDS011;24099;47.102;15.440;2023-08-06T04:06:14;0.20;;;0.20;;
3667;SDS011;24099;47.102;15.440;2023-08-06T04:08:43;0.30;;;0.30;;
3667;SDS011;24099;47.102;15.440;2023-08-06T04:11:11;2.55;;;0.38;;
3667;SDS011;24099;47.102;15.440;2023-08-06T04:13:42;0.20;;;0.20;;
3667;SDS011;24099;47.102;15.440;2023-08-06T04:16:10;0.32;;;0.32;;
3667;SDS011;24099;47.102;15.440;2023-08-06T04:18:38;2.30;;;0.40;;
3667;SDS011;24099;47.102;15.440;2023-08-06T04:21:06;0.57;;;0.50;;
3667;SDS011;24099;47.102;15.440;2023-08-06T04:23:33;0.55;;;0.50;;
3667;SDS011;24099;47.102;15.440;2023-08-06T04:26:06;3.83;;;0.52;;
3667;SDS011;24099;47.102;15.440;2023-08-06T04:28:35;0.30;;;0.30;;
3667;SDS011;24099;47.102;15.440;2023-08-06T04:31:02;0.30;;;0.30;;
3667;SDS011;24099;47.102;15.440;2023-08-06T04:33:32;0.40;;;0.40;;
3667;SDS011;24099;47.102;15.440;2023-08-06T04:36:05;0.35;;;0.32;;
3667;SDS011;24099;47.102;15.440;2023-08-06T04:38:33;0.20;;;0.20;;
3667;SDS011;24099;47.102;15.440;2023-08-06T04:41:01;1.67;;;0.30;;
3667;SDS011;24099;47.102;15.440;2023-08-06T04:43:31;0.40;;;0.40;;
3667;SDS011;24099;47.102;15.440;2023-08-06T04:45:58;0.30;;;0.30;;
3667;SDS011;24099;47.102;15.440;2023-08-06T04:48:26;1.52;;;0.40;;
3667;SDS011;24099;47.102;15.440;2023-08-06T04:50:53;0.40;;;0.30;;
3667;SDS011;24099;47.102;15.440;2023-08-06T04:53:21;0.65;;;0.60;;
3667;SDS011;24099;47.102;15.440;2023-08-06T04:55:48;0.82;;;0.25;;
3667;SDS011;24099;47.102;15.440;2023-08-06T04:58:16;3.83;;;0.40;;
3667;SDS011;24099;47.102;15.440;2023-08-06T05:00:45;0.30;;;0.30;;
3667;SDS011;24099;47.102;15.440;2023-08-06T05:03:12;0.10;;;0.10;;
3667;SDS011;24099;47.102;15.440;2023-08-06T05:05:40;1.33;;;0.50;;
3667;SDS011;24099;47.102;15.440;2023-08-06T05:08:13;0.30;;;0.30;;
3667;SDS011;24099;47.102;15.440;2023-08-06T05:10:42;0.40;;;0.40;;
3667;SDS011;24099;47.102;15.440;2023-08-06T05:13:10;1.48;;;0.30;;
3667;SDS011;24099;47.102;15.440;2023-08-06T05:15:38;1.05;;;0.20;;
3667;SDS011;24099;47.102;15.440;2023-08-06T05:18:09;0.35;;;0.30;;
3667;SDS011;24099;47.102;15.440;2023-08-06T05:20:36;5.88;;;0.40;;
3667;SDS011;24099;47.102;15.440;2023-08-06T05:23:04;0.35;;;0.35;;
3667;SDS011;24099;47.102;15.440;2023-08-06T05:25:31;3.55;;;0.50;;
3667;SDS011;24099;47.102;15.440;2023-08-06T05:28:00;0.90;;;0.70;;
3667;SDS011;24099;47.102;15.440;2023-08-06T05:30:28;1.00;;;0.38;;
3667;SDS011;24099;47.102;15.440;2023-08-06T05:32:56;0.70;;;0.50;;
3667;SDS011;24099;47.102;15.440;2023-08-06T05:35:25;0.30;;;0.30;;
3667;SDS011;24099;47.102;15.440;2023-08-06T05:37:52;1.30;;;0.50;;
3667;SDS011;24099;47.102;15.440;2023-08-06T05:40:20;2.72;;;0.80;;
3667;SDS011;24099;47.102;15.440;2023-08-06T05:42:47;0.47;;;0.40;;
3667;SDS011;24099;47.102;15.440;2023-08-06T05:45:15;0.30;;;0.30;;
3667;SDS011;24099;47.102;15.440;2023-08-06T05:47:43;0.40;;;0.30;;
3667;SDS011;24099;47.102;15.440;2023-08-06T05:50:10;0.30;;;0.30;;
3667;SDS011;24099;47.102;15.440;2023-08-06T05:52:39;0.40;;;0.40;;
3667;SDS011;24099;47.102;15.440;2023-08-06T05:55:07;1.48;;;0.57;;
3667;SDS011;24099;47.102;15.440;2023-08-06T05:57:35;0.30;;;0.30;;
3667;SDS011;24099;47.102;15.440;2023-08-06T06:00:03;3.60;;;0.45;;
3667;SDS011;24099;47.102;15.440;2023-08-06T06:02:37;0.38;;;0.38;;
3667;SDS011;24099;47.102;15.440;2023-08-06T06:05:05;1.45;;;0.50;;
3667;SDS011;24099;47.102;15.440;2023-08-06T06:07:33;0.55;;;0.55;;
3667;SDS011;24099;47.102;15.440;2023-08-06T06:10:02;2.65;;;0.40;;
3667;SDS011;24099;47.102;15.440;2023-08-06T06:12:30;0.30;;;0.30;;
3667;SDS011;24099;47.102;15.440;2023-08-06T06:14:58;1.58;;;0.55;;
3667;SDS011;24099;47.102;15.440;2023-08-06T06:17:26;0.38;;;0.25;;
3667;SDS011;24099;47.102;15.440;2023-08-06T06:19:53;1.98;;;0.50;;
3667;SDS011;24099;47.102;15.440;2023-08-06T06:22:21;1.85;;;0.45;;
3667;SDS011;24099;47.102;15.440;2023-08-06T06:24:48;0.43;;;0.40;;
3667;SDS011;24099;47.102;15.440;2023-08-06T06:27:17;0.80;;;0.80;;
3667;SDS011;24099;47.102;15.440;2023-08-06T06:29:45;0.75;;;0.60;;
3667;SDS011;24099;47.102;15.440;2023-08-06T06:32:12;1.30;;;0.70;;
3667;SDS011;24099;47.102;15.440;2023-08-06T06:34:39;1.10;;;0.75;;
3667;SDS011;24099;47.102;15.440;2023-08-06T06:37:07;1.70;;;0.90;;
3667;SDS011;24099;47.102;15.440;2023-08-06T06:39:34;1.05;;;0.75;;
3667;SDS011;24099;47.102;15.440;2023-08-06T06:42:02;1.30;;;0.90;;
3667;SDS011;24099;47.102;15.440;2023-08-06T06:44:38;1.92;;;0.73;;
3667;SDS011;24099;47.102;15.440;2023-08-06T06:47:05;3.45;;;1.00;;
3667;SDS011;24099;47.102;15.440;2023-08-06T06:49:32;1.83;;;1.15;;
3667;SDS011;24099;47.102;15.440;2023-08-06T06:52:00;2.78;;;1.00;;
3667;SDS011;24099;47.102;15.440;2023-08-06T06:54:27;1.00;;;0.90;;
3667;SDS011;24099;47.102;15.440;2023-08-06T06:56:55;1.80;;;0.90;;
3667;SDS011;24099;47.102;15.440;2023-08-06T06:59:23;0.98;;;0.93;;
3667;SDS011;24099;47.102;15.440;2023-08-06T07:01:52;1.83;;;0.90;;
3667;SDS011;24099;47.102;15.440;2023-08-06T07:04:19;1.15;;;1.00;;
3667;SDS011;24099;47.102;15.440;2023-08-06T07:06:47;1.70;;;1.10;;
3667;SDS011;24099;47.102;15.440;2023-08-06T07:09:14;1.60;;;0.90;;
3667;SDS011;24099;47.102;15.440;2023-08-06T07:11:42;1.85;;;1.15;;
3667;SDS011;24099;47.102;15.440;2023-08-06T07:14:09;1.92;;;1.58;;
3667;SDS011;24099;47.102;15.440;2023-08-06T07:16:37;4.82;;;1.85;;
3667;SDS011;24099;47.102;15.440;2023-08-06T07:19:06;2.08;;;1.63;;
3667;SDS011;24099;47.102;15.440;2023-08-06T07:21:33;1.73;;;1.35;;
3667;SDS011;24099;47.102;15.440;2023-08-06T07:24:01;3.78;;;1.77;;
3667;SDS011;24099;47.102;15.440;2023-08-06T07:26:28;1.60;;;1.33;;
3667;SDS011;24099;47.102;15.440;2023-08-06T07:28:56;2.45;;;1.58;;
3667;SDS011;24099;47.102;15.440;2023-08-06T07:31:23;1.80;;;1.50;;
3667;SDS011;24099;47.102;15.440;2023-08-06T07:33:51;2.10;;;1.52;;
3667;SDS011;24099;47.102;15.440;2023-08-06T07:36:20;1.95;;;1.48;;
3667;SDS011;24099;47.102;15.440;2023-08-06T07:38:47;2.42;;;1.10;;
3667;SDS011;24099;47.102;15.440;2023-08-06T07:41:20;3.80;;;1.10;;
3667;SDS011;24099;47.102;15.440;2023-08-06T07:43:48;1.23;;;0.93;;
3667;SDS011;24099;47.102;15.440;2023-08-06T07:46:15;1.77;;;1.02;;
3667;SDS011;24099;47.102;15.440;2023-08-06T07:48:43;1.70;;;1.20;;
3667;SDS011;24099;47.102;15.440;2023-08-06T07:51:10;1.90;;;1.50;;
3667;SDS011;24099;47.102;15.440;2023-08-06T07:53:39;1.05;;;1.00;;
3667;SDS011;24099;47.102;15.440;2023-08-06T07:56:07;1.13;;;0.80;;
3667;SDS011;24099;47.102;15.440;2023-08-06T07:58:34;1.73;;;1.15;;
3667;SDS011;24099;47.102;15.440;2023-08-06T08:01:02;1.15;;;1.00;;
3667;SDS011;24099;47.102;15.440;2023-08-06T08:03:29;1.40;;;0.88;;
3667;SDS011;24099;47.102;15.440;2023-08-06T08:05:57;0.75;;;0.70;;
3667;SDS011;24099;47.102;15.440;2023-08-06T08:08:24;2.88;;;0.90;;
3667;SDS011;24099;47.102;15.440;2023-08-06T08:10:53;0.82;;;0.82;;
3667;SDS011;24099;47.102;15.440;2023-08-06T08:13:21;0.90;;;0.65;;
3667;SDS011;24099;47.102;15.440;2023-08-06T08:15:49;0.77;;;0.73;;
3667;SDS011;24099;47.102;15.440;2023-08-06T08:18:22;1.10;;;1.00;;
3667;SDS011;24099;47.102;15.440;2023-08-06T08:20:50;1.30;;;1.00;;
3667;SDS011;24099;47.102;15.440;2023-08-06T08:23:17;1.00;;;1.00;;
3667;SDS011;24099;47.102;15.440;2023-08-06T08:25:46;0.77;;;0.77;;
3667;SDS011;24099;47.102;15.440;2023-08-06T08:28:15;0.88;;;0.80;;
3667;SDS011;24099;47.102;15.440;2023-08-06T08:30:42;0.75;;;0.70;;
3667;SDS011;24099;47.102;15.440;2023-08-06T08:33:10;2.00;;;1.05;;
3667;SDS011;24099;47.102;15.440;2023-08-06T08:35:37;0.63;;;0.63;;
3667;SDS011;24099;47.102;15.440;2023-08-06T08:38:05;1.58;;;0.75;;
3667;SDS011;24099;47.102;15.440;2023-08-06T08:40:33;2.30;;;0.90;;
3667;SDS011;24099;47.102;15.440;2023-08-06T08:43:06;0.75;;;0.65;;
3667;SDS011;24099;47.102;15.440;2023-08-06T08:45:35;1.05;;;0.93;;
3667;SDS011;24099;47.102;15.440;2023-08-06T08:48:08;1.77;;;0.88;;
3667;SDS011;24099;47.102;15.440;2023-08-06T08:50:39;2.85;;;0.88;;
3667;SDS011;24099;47.102;15.440;2023-08-06T08:53:07;1.00;;;0.93;;
3667;SDS011;24099;47.102;15.440;2023-08-06T08:55:37;1.10;;;1.00;;
3667;SDS011;24099;47.102;15.440;2023-08-06T08:58:05;1.63;;;0.90;;
3667;SDS011;24099;47.102;15.440;2023-08-06T09:00:33;3.58;;;0.93;;
3667;SDS011;24099;47.102;15.440;2023-08-06T09:03:03;0.63;;;0.63;;
3667;SDS011;24099;47.102;15.440;2023-08-06T09:05:32;1.08;;;0.50;;
3667;SDS011;24099;47.102;15.440;2023-08-06T09:08:02;0.40;;;0.40;;
3667;SDS011;24099;47.102;15.440;2023-08-06T09:10:30;0.60;;;0.60;;
3667;SDS011;24099;47.102;15.440;2023-08-06T09:12:58;0.50;;;0.50;;
3667;SDS011;24099;47.102;15.440;2023-08-06T09:15:27;1.23;;;0.40;;
3667;SDS011;24099;47.102;15.440;2023-08-06T09:17:56;0.65;;;0.50;;
3667;SDS011;24099;47.102;15.440;2023-08-06T09:20:23;0.43;;;0.43;;
3667;SDS011;24099;47.102;15.440;2023-08-06T09:22:52;0.68;;;0.50;;
3667;SDS011;24099;47.102;15.440;2023-08-06T09:25:21;0.40;;;0.40;;
3667;SDS011;24099;47.102;15.440;2023-08-06T09:27:50;1.38;;;0.45;;
3667;SDS011;24099;47.102;15.440;2023-08-06T09:30:28;0.85;;;0.50;;
3667;SDS011;24099;47.102;15.440;2023-08-06T09:32:58;0.50;;;0.50;;
3667;SDS011;24099;47.102;15.440;2023-08-06T09:35:27;0.50;;;0.47;;
3667;SDS011;24099;47.102;15.440;2023-08-06T09:37:56;0.50;;;0.50;;
3667;SDS011;24099;47.102;15.440;2023-08-06T09:40:32;0.70;;;0.68;;
3667;SDS011;24099;47.102;15.440;2023-08-06T09:43:00;1.77;;;0.52;;
3667;SDS011;24099;47.102;15.440;2023-08-06T09:45:28;1.25;;;0.70;;
3667;SDS011;24099;47.102;15.440;2023-08-06T09:47:59;0.55;;;0.55;;
3667;SDS011;24099;47.102;15.440;2023-08-06T09:50:30;0.50;;;0.50;;
3667;SDS011;24099;47.102;15.440;2023-08-06T09:53:01;0.60;;;0.60;;
3667;SDS011;24099;47.102;15.440;2023-08-06T09:55:29;1.95;;;0.65;;
3667;SDS011;24099;47.102;15.440;2023-08-06T09:57:58;0.85;;;0.47;;
3667;SDS011;24099;47.102;15.440;2023-08-06T10:00:26;0.45;;;0.45;;
3667;SDS011;24099;47.102;15.440;2023-08-06T10:02:59;0.50;;;0.50;;
3667;SDS011;24099;47.102;15.440;2023-08-06T10:05:27;1.08;;;0.50;;
3667;SDS011;24099;47.102;15.440;2023-08-06T10:07:56;0.75;;;0.40;;
3667;SDS011;24099;47.102;15.440;2023-08-06T10:10:25;0.40;;;0.40;;
3667;SDS011;24099;47.102;15.440;2023-08-06T10:12:55;0.40;;;0.40;;
3667;SDS011;24099;47.102;15.440;2023-08-06T10:15:26;0.40;;;0.40;;
3667;SDS011;24099;47.102;15.440;2023-08-06T10:17:56;0.30;;;0.30;;
3667;SDS011;24099;47.102;15.440;2023-08-06T10:20:27;0.50;;;0.40;;
3667;SDS011;24099;47.102;15.440;2023-08-06T10:23:03;0.50;;;0.50;;
3667;SDS011;24099;47.102;15.440;2023-08-06T10:25:33;0.90;;;0.60;;
3667;SDS011;24099;47.102;15.440;2023-08-06T10:28:01;0.40;;;0.40;;
3667;SDS011;24099;47.102;15.440;2023-08-06T10:30:41;0.50;;;0.50;;
3667;SDS011;24099;47.102;15.440;2023-08-06T10:33:11;0.52;;;0.45;;
3667;SDS011;24099;47.102;15.440;2023-08-06T10:35:40;0.40;;;0.40;;
3667;SDS011;24099;47.102;15.440;2023-08-06T10:38:10;0.30;;;0.30;;
3667;SDS011;24099;47.102;15.440;2023-08-06T10:40:39;0.38;;;0.38;;
3667;SDS011;24099;47.102;15.440;2023-08-06T10:43:08;2.55;;;0.50;;
3667;SDS011;24099;47.102;15.440;2023-08-06T10:45:52;0.35;;;0.30;;
3667;SDS011;24099;47.102;15.440;2023-08-06T10:48:29;0.60;;;0.40;;
3667;SDS011;24099;47.102;15.440;2023-08-06T10:50:59;0.30;;;0.30;;
3667;SDS011;24099;47.102;15.440;2023-08-06T10:53:27;1.60;;;0.40;;
3667;SDS011;24099;47.102;15.440;2023-08-06T10:55:55;0.40;;;0.40;;
3667;SDS011;24099;47.102;15.440;2023-08-06T10:58:22;0.30;;;0.30;;
3667;SDS011;24099;47.102;15.440;2023-08-06T11:00:50;2.55;;;0.50;;
3667;SDS011;24099;47.102;15.440;2023-08-06T11:03:18;0.20;;;0.20;;
3667;SDS011;24099;47.102;15.440;2023-08-06T11:05:49;0.20;;;0.20;;
3667;SDS011;24099;47.102;15.440;2023-08-06T11:08:22;0.20;;;0.20;;
3667;SDS011;24099;47.102;15.440;2023-08-06T11:10:51;0.22;;;0.22;;
3667;SDS011;24099;47.102;15.440;2023-08-06T11:13:19;1.52;;;0.30;;
3667;SDS011;24099;47.102;15.440;2023-08-06T11:15:47;0.28;;;0.28;;
3667;SDS011;24099;47.102;15.440;2023-08-06T11:18:15;0.30;;;0.30;;
3667;SDS011;24099;47.102;15.440;2023-08-06T11:20:43;0.20;;;0.20;;
3667;SDS011;24099;47.102;15.440;2023-08-06T11:23:12;0.40;;;0.20;;
3667;SDS011;24099;47.102;15.440;2023-08-06T11:25:43;0.60;;;0.20;;
3667;SDS011;24099;47.102;15.440;2023-08-06T11:28:11;0.13;;;0.13;;
3667;SDS011;24099;47.102;15.440;2023-08-06T11:30:38;0.47;;;0.40;;
3667;SDS011;24099;47.102;15.440;2023-08-06T11:33:06;0.57;;;0.40;;
3667;SDS011;24099;47.102;15.440;2023-08-06T11:35:35;0.63;;;0.20;;
3667;SDS011;24099;47.102;15.440;2023-08-06T11:38:05;0.35;;;0.30;;
3667;SDS011;24099;47.102;15.440;2023-08-06T11:40:35;0.55;;;0.20;;
3667;SDS011;24099;47.102;15.440;2023-08-06T11:43:02;0.30;;;0.30;;
3667;SDS011;24099;47.102;15.440;2023-08-06T11:45:32;0.30;;;0.30;;
3667;SDS011;24099;47.102;15.440;2023-08-06T11:48:02;1.65;;;0.30;;
3667;SDS011;24099;47.102;15.440;2023-08-06T11:50:30;0.20;;;0.20;;
3667;SDS011;24099;47.102;15.440;2023-08-06T11:52:59;0.10;;;0.10;;
3667;SDS011;24099;47.102;15.440;2023-08-06T11:55:27;0.20;;;0.20;;
3667;SDS011;24099;47.102;15.440;2023-08-06T11:57:57;0.20;;;0.20;;
3667;SDS011;24099;47.102;15.440;2023-08-06T12:00:25;0.35;;;0.22;;
3667;SDS011;24099;47.102;15.440;2023-08-06T12:02:52;0.22;;;0.22;;
3667;SDS011;24099;47.102;15.440;2023-08-06T12:05:20;0.20;;;0.20;;
3667;SDS011;24099;47.102;15.440;2023-08-06T12:07:51;0.15;;;0.10;;
3667;SDS011;24099;47.102;15.440;2023-08-06T12:10:20;0.22;;;0.22;;
3667;SDS011;24099;47.102;15.440;2023-08-06T12:12:48;0.10;;;0.10;;
3667;SDS011;24099;47.102;15.440;2023-08-06T12:15:17;0.28;;;0.20;;
3667;SDS011;24099;47.102;15.440;2023-08-06T12:17:45;0.85;;;0.25;;
3667;SDS011;24099;47.102;15.440;2023-08-06T12:20:13;0.10;;;0.10;;
3667;SDS011;24099;47.102;15.440;2023-08-06T12:22:41;0.63;;;0.22;;
3667;SDS011;24099;47.102;15.440;2023-08-06T12:25:11;0.22;;;0.20;;
3667;SDS011;24099;47.102;15.440;2023-08-06T12:27:39;0.13;;;0.13;;
3667;SDS011;24099;47.102;15.440;2023-08-06T12:30:08;0.70;;;0.40;;
3667;SDS011;24099;47.102;15.440;2023-08-06T12:32:38;0.15;;;0.15;;
3667;SDS011;24099;47.102;15.440;2023-08-06T12:35:06;0.15;;;0.15;;
3667;SDS011;24099;47.102;15.440;2023-08-06T12:37:34;0.10;;;0.10;;
3667;SDS011;24099;47.102;15.440;2023-08-06T12:40:04;0.20;;;0.20;;
3667;SDS011;24099;47.102;15.440;2023-08-06T12:42:32;0.30;;;0.20;;
3667;SDS011;24099;47.102;15.440;2023-08-06T12:44:59;0.20;;;0.20;;
3667;SDS011;24099;47.102;15.440;2023-08-06T12:47:27;0.20;;;0.10;;
3667;SDS011;24099;47.102;15.440;2023-08-06T12:49:56;1.00;;;0.30;;
3667;SDS011;24099;47.102;15.440;2023-08-06T12:52:24;0.28;;;0.20;;
3667;SDS011;24099;47.102;15.440;2023-08-06T12:54:51;0.38;;;0.30;;
3667;SDS011;24099;47.102;15.440;2023-08-06T12:57:19;0.30;;;0.20;;
3667;SDS011;24099;47.102;15.440;2023-08-06T12:59:46;0.13;;;0.10;;
3667;SDS011;24099;47.102;15.440;2023-08-06T13:02:14;0.95;;;0.20;;
3667;SDS011;24099;47.102;15.440;2023-08-06T13:04:41;0.50;;;0.20;;
3667;SDS011;24099;47.102;15.440;2023-08-06T13:07:10;0.25;;;0.20;;
3667;SDS011;24099;47.102;15.440;2023-08-06T13:09:38;1.00;;;0.15;;
3667;SDS011;24099;47.102;15.440;2023-08-06T13:12:06;0.00;;;0.00;;
3667;SDS011;24099;47.102;15.440;2023-08-06T13:14:33;0.20;;;0.20;;
3667;SDS011;24099;47.102;15.440;2023-08-06T13:17:01;0.50;;;0.10;;
3667;SDS011;24099;47.102;15.440;2023-08-06T13:19:31;0.10;;;0.10;;
3667;SDS011;24099;47.102;15.440;2023-08-06T13:22:00;0.10;;;0.10;;
3667;SDS011;24099;47.102;15.440;2023-08-06T13:24:30;0.17;;;0.10;;
3667;SDS011;24099;47.102;15.440;2023-08-06T13:26:58;1.33;;;0.20;;
3667;SDS011;24099;47.102;15.440;2023-08-06T13:29:25;0.10;;;0.10;;
3667;SDS011;24099;47.102;15.440;2023-08-06T13:31:53;1.27;;;0.20;;
3667;SDS011;24099;47.102;15.440;2023-08-06T13:34:21;0.43;;;0.15;;
3667;SDS011;24099;47.102;15.440;2023-08-06T13:36:48;0.10;;;0.10;;
3667;SDS011;24099;47.102;15.440;2023-08-06T13:39:15;0.25;;;0.10;;
3667;SDS011;24099;47.102;15.440;2023-08-06T13:41:44;0.20;;;0.13;;
3667;SDS011;24099;47.102;15.440;2023-08-06T13:44:12;0.05;;;0.05;;
3667;SDS011;24099;47.102;15.440;2023-08-06T13:46:40;0.20;;;0.20;;
3667;SDS011;24099;47.102;15.440;2023-08-06T13:49:08;0.00;;;0.00;;
3667;SDS011;24099;47.102;15.440;2023-08-06T13:51:36;0.35;;;0.10;;
3667;SDS011;24099;47.102;15.440;2023-08-06T13:54:04;0.20;;;0.10;;
3667;SDS011;24099;47.102;15.440;2023-08-06T13:56:32;0.20;;;0.20;;
3667;SDS011;24099;47.102;15.440;2023-08-06T13:59:03;0.20;;;0.20;;
3667;SDS011;24099;47.102;15.440;2023-08-06T14:01:31;0.10;;;0.10;;
3667;SDS011;24099;47.102;15.440;2023-08-06T14:03:59;0.15;;;0.10;;
3667;SDS011;24099;47.102;15.440;2023-08-06T14:06:26;0.35;;;0.10;;
3667;SDS011;24099;47.102;15.440;2023-08-06T14:08:54;0.73;;;0.17;;
3667;SDS011;24099;47.102;15.440;2023-08-06T14:11:21;0.10;;;0.10;;
3667;SDS011;24099;47.102;15.440;2023-08-06T14:13:49;0.68;;;0.10;;
3667;SDS011;24099;47.102;15.440;2023-08-06T14:16:18;0.00;;;0.00;;
3667;SDS011;24099;47.102;15.440;2023-08-06T14:18:45;1.35;;;0.20;;
3667;SDS011;24099;47.102;15.440;2023-08-06T14:21:13;0.10;;;0.10;;
3667;SDS011;24099;47.102;15.440;2023-08-06T14:23:40;0.57;;;0.20;;
3667;SDS011;24099;47.102;15.440;2023-08-06T14:26:08;4.68;;;1.20;;
3667;SDS011;24099;47.102;15.440;2023-08-06T14:28:36;1.13;;;0.30;;
3667;SDS011;24099;47.102;15.440;2023-08-06T14:31:03;0.20;;;0.20;;
3667;SDS011;24099;47.102;15.440;2023-08-06T14:33:33;0.40;;;0.10;;
3667;SDS011;24099;47.102;15.440;2023-08-06T14:36:00;0.25;;;0.13;;
3667;SDS011;24099;47.102;15.440;2023-08-06T14:38:28;0.10;;;0.10;;
3667;SDS011;24099;47.102;15.440;2023-08-06T14:40:55;0.00;;;0.00;;
3667;SDS011;24099;47.102;15.440;2023-08-06T14:43:24;0.52;;;0.17;;
3667;SDS011;24099;47.102;15.440;2023-08-06T14:45:51;1.30;;;0.20;;
3667;SDS011;24099;47.102;15.440;2023-08-06T14:48:19;0.10;;;0.10;;
3667;SDS011;24099;47.102;15.440;2023-08-06T14:50:48;1.88;;;0.10;;
3667;SDS011;24099;47.102;15.440;2023-08-06T14:53:15;0.30;;;0.15;;
3667;SDS011;24099;47.102;15.440;2023-08-06T14:55:43;0.20;;;0.10;;